sensor_id;sensor_type;location;lat;lon;timestamp;pressure;altitude;pressure_sealevel;temperature;humidity
26807;BME280;14380;49.910;6.792;2023-04-16T00:02:27;99047.00;;;9.95;100.00
26807;BME280;14380;49.910;6.792;2023-04-16T00:04:53;99044.94;;;9.83;100.00
26807;BME280;14380;49.910;6.792;2023-04-16T00:07:20;99041.47;;;9.63;100.00
26807;BME280;14380;49.910;6.792;2023-04-16T00:09:48;99035.13;;;9.67;100.00
26807;BME280;14380;49.910;6.792;2023-04-16T00:12:14;99045.97;;;9.80;100.00
26807;BME280;14380;49.910;6.792;2023-04-16T00:14:41;99041.03;;;9.92;100.00
26807;BME280;14380;49.910;6.792;2023-04-16T00:17:08;99036.06;;;10.03;100.00
26807;BME280;14380;49.910;6.792;2023-04-16T00:19:34;99030.72;;;10.05;99.19
26807;BME280;14380;49.910;6.792;2023-04-16T00:22:01;99031.22;;;10.13;99.35
26807;BME280;14380;49.910;6.792;2023-04-16T00:24:28;99037.56;;;10.09;100.00
26807;BME280;14380;49.910;6.792;2023-04-16T00:26:55;99034.69;;;10.14;98.93
26807;BME280;14380;49.910;6.792;2023-04-16T00:29:22;99039.94;;;9.96;100.00
26807;BME280;14380;49.910;6.792;2023-04-16T00:31:48;99036.75;;;9.89;100.00
26807;BME280;14380;49.910;6.792;2023-04-16T00:34:15;99031.97;;;9.97;100.00
26807;BME280;14380;49.910;6.792;2023-04-16T00:36:42;99040.28;;;10.07;100.00
26807;BME280;14380;49.910;6.792;2023-04-16T00:39:08;99038.75;;;9.84;100.00
26807;BME280;14380;49.910;6.792;2023-04-16T00:41:36;99033.59;;;9.81;100.00
26807;BME280;14380;49.910;6.792;2023-04-16T00:44:04;99040.16;;;9.91;100.00
26807;BME280;14380;49.910;6.792;2023-04-16T00:46:30;99037.97;;;9.82;100.00
26807;BME280;14380;49.910;6.792;2023-04-16T00:48:59;99034.81;;;9.93;100.00
26807;BME280;14380;49.910;6.792;2023-04-16T00:51:25;99037.38;;;9.94;100.00
26807;BME280;14380;49.910;6.792;2023-04-16T00:53:52;99042.16;;;9.86;100.00
26807;BME280;14380;49.910;6.792;2023-04-16T00:56:19;99044.38;;;9.95;100.00
26807;BME280;14380;49.910;6.792;2023-04-16T00:58:48;99040.88;;;9.76;100.00
26807;BME280;14380;49.910;6.792;2023-04-16T01:01:16;99047.38;;;9.88;100.00
26807;BME280;14380;49.910;6.792;2023-04-16T01:03:44;99052.34;;;9.94;100.00
26807;BME280;14380;49.910;6.792;2023-04-16T01:06:11;99051.97;;;10.02;100.00
26807;BME280;14380;49.910;6.792;2023-04-16T01:08:37;99049.88;;;9.91;100.00
26807;BME280;14380;49.910;6.792;2023-04-16T01:11:04;99053.44;;;9.90;100.00
26807;BME280;14380;49.910;6.792;2023-04-16T01:13:31;99053.59;;;9.87;100.00
26807;BME280;14380;49.910;6.792;2023-04-16T01:15:58;99050.44;;;9.78;100.00
26807;BME280;14380;49.910;6.792;2023-04-16T01:18:27;99051.50;;;9.74;100.00
26807;BME280;14380;49.910;6.792;2023-04-16T01:20:55;99061.03;;;9.96;100.00
26807;BME280;14380;49.910;6.792;2023-04-16T01:23:21;99058.56;;;9.74;100.00
26807;BME280;14380;49.910;6.792;2023-04-16T01:25:48;99050.66;;;9.74;100.00
26807;BME280;14380;49.910;6.792;2023-04-16T01:28:14;99053.50;;;9.88;100.00
26807;BME280;14380;49.910;6.792;2023-04-16T01:30:41;99057.28;;;9.82;100.00
26807;BME280;14380;49.910;6.792;2023-04-16T01:33:08;99056.41;;;9.82;100.00
26807;BME280;14380;49.910;6.792;2023-04-16T01:35:35;99056.00;;;9.72;100.00
26807;BME280;14380;49.910;6.792;2023-04-16T01:38:04;99067.19;;;9.77;100.00
26807;BME280;14380;49.910;6.792;2023-04-16T01:40:32;99064.34;;;9.63;100.00
26807;BME280;14380;49.910;6.792;2023-04-16T01:42:58;99063.41;;;9.45;100.00
26807;BME280;14380;49.910;6.792;2023-04-16T01:45:25;99070.09;;;9.33;100.00
26807;BME280;14380;49.910;6.792;2023-04-16T01:47:51;99071.50;;;9.21;100.00
26807;BME280;14380;49.910;6.792;2023-04-16T01:50:19;99062.59;;;9.23;100.00
26807;BME280;14380;49.910;6.792;2023-04-16T01:52:45;99063.66;;;9.19;100.00
26807;BME280;14380;49.910;6.792;2023-04-16T01:55:14;99059.44;;;9.15;100.00
26807;BME280;14380;49.910;6.792;2023-04-16T01:57:40;99063.22;;;9.10;100.00
26807;BME280;14380;49.910;6.792;2023-04-16T02:00:07;99060.53;;;9.30;100.00
26807;BME280;14380;49.910;6.792;2023-04-16T02:02:34;99056.94;;;9.33;100.00
26807;BME280;14380;49.910;6.792;2023-04-16T02:05:01;99053.53;;;9.10;100.00
26807;BME280;14380;49.910;6.792;2023-04-16T02:07:28;99057.59;;;9.17;100.00
26807;BME280;14380;49.910;6.792;2023-04-16T02:09:55;99049.81;;;9.54;100.00
26807;BME280;14380;49.910;6.792;2023-04-16T02:12:23;99058.78;;;9.31;100.00
26807;BME280;14380;49.910;6.792;2023-04-16T02:14:50;99053.94;;;9.41;100.00
26807;BME280;14380;49.910;6.792;2023-04-16T02:17:17;99055.00;;;9.36;100.00
26807;BME280;14380;49.910;6.792;2023-04-16T02:19:43;99055.72;;;9.40;100.00
26807;BME280;14380;49.910;6.792;2023-04-16T02:22:09;99056.97;;;9.31;100.00
26807;BME280;14380;49.910;6.792;2023-04-16T02:24:36;99061.56;;;9.47;100.00
26807;BME280;14380;49.910;6.792;2023-04-16T02:27:02;99058.38;;;9.40;100.00
26807;BME280;14380;49.910;6.792;2023-04-16T02:29:30;99054.16;;;9.55;100.00
26807;BME280;14380;49.910;6.792;2023-04-16T02:31:57;99058.50;;;9.56;100.00
26807;BME280;14380;49.910;6.792;2023-04-16T02:34:23;99059.31;;;9.18;100.00
26807;BME280;14380;49.910;6.792;2023-04-16T02:36:50;99066.13;;;9.43;100.00
26807;BME280;14380;49.910;6.792;2023-04-16T02:39:16;99065.41;;;9.40;100.00
26807;BME280;14380;49.910;6.792;2023-04-16T02:41:43;99068.16;;;9.36;100.00
26807;BME280;14380;49.910;6.792;2023-04-16T02:44:09;99062.25;;;9.31;100.00
26807;BME280;14380;49.910;6.792;2023-04-16T02:46:39;99060.91;;;9.42;100.00
26807;BME280;14380;49.910;6.792;2023-04-16T02:49:06;99063.69;;;9.38;100.00
26807;BME280;14380;49.910;6.792;2023-04-16T02:51:32;99065.53;;;9.36;100.00
26807;BME280;14380;49.910;6.792;2023-04-16T02:53:59;99069.47;;;9.47;100.00
26807;BME280;14380;49.910;6.792;2023-04-16T02:56:27;99069.97;;;9.55;100.00
26807;BME280;14380;49.910;6.792;2023-04-16T02:58:53;99065.19;;;9.25;100.00
26807;BME280;14380;49.910;6.792;2023-04-16T03:01:20;99065.34;;;9.41;100.00
26807;BME280;14380;49.910;6.792;2023-04-16T03:03:48;99063.81;;;9.35;100.00
26807;BME280;14380;49.910;6.792;2023-04-16T03:06:14;99067.53;;;9.50;100.00
26807;BME280;14380;49.910;6.792;2023-04-16T03:08:41;99072.88;;;9.30;100.00
26807;BME280;14380;49.910;6.792;2023-04-16T03:11:07;99074.59;;;9.31;100.00
26807;BME280;14380;49.910;6.792;2023-04-16T03:13:33;99073.56;;;9.33;100.00
26807;BME280;14380;49.910;6.792;2023-04-16T03:16:00;99084.72;;;9.40;100.00
26807;BME280;14380;49.910;6.792;2023-04-16T03:18:27;99076.94;;;9.37;100.00
26807;BME280;14380;49.910;6.792;2023-04-16T03:20:54;99086.31;;;9.23;100.00
26807;BME280;14380;49.910;6.792;2023-04-16T03:23:21;99084.41;;;9.27;100.00
26807;BME280;14380;49.910;6.792;2023-04-16T03:25:47;99088.25;;;9.20;100.00
26807;BME280;14380;49.910;6.792;2023-04-16T03:28:14;99088.19;;;9.01;100.00
26807;BME280;14380;49.910;6.792;2023-04-16T03:30:40;99082.91;;;9.21;100.00
26807;BME280;14380;49.910;6.792;2023-04-16T03:33:07;99084.09;;;9.14;100.00
26807;BME280;14380;49.910;6.792;2023-04-16T03:35:33;99086.94;;;8.89;100.00
26807;BME280;14380;49.910;6.792;2023-04-16T03:38:01;99077.97;;;9.14;100.00
26807;BME280;14380;49.910;6.792;2023-04-16T03:40:27;99077.53;;;9.04;100.00
26807;BME280;14380;49.910;6.792;2023-04-16T03:42:54;99077.38;;;9.07;100.00
26807;BME280;14380;49.910;6.792;2023-04-16T03:45:20;99076.66;;;9.24;100.00
26807;BME280;14380;49.910;6.792;2023-04-16T03:47:47;99064.06;;;9.10;100.00
26807;BME280;14380;49.910;6.792;2023-04-16T03:50:17;99079.81;;;8.91;100.00
26807;BME280;14380;49.910;6.792;2023-04-16T03:52:43;99078.59;;;8.79;100.00
26807;BME280;14380;49.910;6.792;2023-04-16T03:55:12;99081.09;;;9.03;100.00
26807;BME280;14380;49.910;6.792;2023-04-16T03:57:39;99081.09;;;9.03;100.00
26807;BME280;14380;49.910;6.792;2023-04-16T04:00:06;99077.94;;;8.95;100.00
26807;BME280;14380;49.910;6.792;2023-04-16T04:02:33;99086.53;;;8.98;100.00
26807;BME280;14380;49.910;6.792;2023-04-16T04:04:59;99080.78;;;9.09;100.00
26807;BME280;14380;49.910;6.792;2023-04-16T04:07:26;99086.25;;;9.25;100.00
26807;BME280;14380;49.910;6.792;2023-04-16T04:09:52;99089.81;;;9.24;100.00
26807;BME280;14380;49.910;6.792;2023-04-16T04:12:20;99093.03;;;9.10;100.00
26807;BME280;14380;49.910;6.792;2023-04-16T04:14:46;99103.25;;;8.97;100.00
26807;BME280;14380;49.910;6.792;2023-04-16T04:17:13;99103.78;;;9.26;100.00
26807;BME280;14380;49.910;6.792;2023-04-16T04:19:39;99099.34;;;9.27;100.00
26807;BME280;14380;49.910;6.792;2023-04-16T04:22:06;99095.72;;;9.29;100.00
26807;BME280;14380;49.910;6.792;2023-04-16T04:24:32;99108.44;;;9.19;100.00
26807;BME280;14380;49.910;6.792;2023-04-16T04:26:59;99106.34;;;9.28;100.00
26807;BME280;14380;49.910;6.792;2023-04-16T04:29:27;99098.84;;;9.18;100.00
26807;BME280;14380;49.910;6.792;2023-04-16T04:31:56;99114.94;;;9.31;100.00
26807;BME280;14380;49.910;6.792;2023-04-16T04:34:23;99114.16;;;9.29;100.00
26807;BME280;14380;49.910;6.792;2023-04-16T04:36:49;99113.88;;;9.35;100.00
26807;BME280;14380;49.910;6.792;2023-04-16T04:39:16;99113.97;;;9.34;100.00
26807;BME280;14380;49.910;6.792;2023-04-16T04:41:44;99120.78;;;9.19;100.00
26807;BME280;14380;49.910;6.792;2023-04-16T04:44:11;99126.75;;;9.22;100.00
26807;BME280;14380;49.910;6.792;2023-04-16T04:46:39;99128.25;;;9.28;100.00
26807;BME280;14380;49.910;6.792;2023-04-16T04:49:06;99126.28;;;9.33;100.00
26807;BME280;14380;49.910;6.792;2023-04-16T04:51:32;99123.38;;;9.40;100.00
26807;BME280;14380;49.910;6.792;2023-04-16T04:53:59;99126.09;;;9.38;100.00
26807;BME280;14380;49.910;6.792;2023-04-16T04:56:25;99129.50;;;9.40;100.00
26807;BME280;14380;49.910;6.792;2023-04-16T04:58:51;99126.63;;;9.26;100.00
26807;BME280;14380;49.910;6.792;2023-04-16T05:01:20;99132.56;;;9.31;100.00
26807;BME280;14380;49.910;6.792;2023-04-16T05:03:47;99137.16;;;9.26;100.00
26807;BME280;14380;49.910;6.792;2023-04-16T05:06:15;99133.47;;;9.09;100.00
26807;BME280;14380;49.910;6.792;2023-04-16T05:08:41;99133.28;;;9.14;100.00
26807;BME280;14380;49.910;6.792;2023-04-16T05:11:08;99136.41;;;9.03;100.00
26807;BME280;14380;49.910;6.792;2023-04-16T05:13:34;99139.44;;;9.33;100.00
26807;BME280;14380;49.910;6.792;2023-04-16T05:16:01;99134.13;;;9.14;100.00
26807;BME280;14380;49.910;6.792;2023-04-16T05:18:27;99143.50;;;9.21;100.00
26807;BME280;14380;49.910;6.792;2023-04-16T05:20:55;99138.03;;;9.26;100.00
26807;BME280;14380;49.910;6.792;2023-04-16T05:23:22;99141.50;;;9.06;100.00
26807;BME280;14380;49.910;6.792;2023-04-16T05:25:48;99137.25;;;9.24;100.00
26807;BME280;14380;49.910;6.792;2023-04-16T05:28:15;99142.44;;;9.26;100.00
26807;BME280;14380;49.910;6.792;2023-04-16T05:30:41;99143.56;;;8.99;100.00
26807;BME280;14380;49.910;6.792;2023-04-16T05:33:07;99145.84;;;9.28;100.00
26807;BME280;14380;49.910;6.792;2023-04-16T05:35:34;99144.69;;;9.35;100.00
26807;BME280;14380;49.910;6.792;2023-04-16T05:38:02;99142.75;;;8.97;100.00
26807;BME280;14380;49.910;6.792;2023-04-16T05:40:29;99160.66;;;9.30;100.00
26807;BME280;14380;49.910;6.792;2023-04-16T05:42:56;99154.09;;;9.20;100.00
26807;BME280;14380;49.910;6.792;2023-04-16T05:45:22;99155.66;;;9.45;100.00
26807;BME280;14380;49.910;6.792;2023-04-16T05:47:49;99155.41;;;9.30;100.00
26807;BME280;14380;49.910;6.792;2023-04-16T05:50:16;99159.06;;;9.47;100.00
26807;BME280;14380;49.910;6.792;2023-04-16T05:52:42;99169.56;;;9.28;100.00
26807;BME280;14380;49.910;6.792;2023-04-16T05:55:10;99172.66;;;8.96;100.00
26807;BME280;14380;49.910;6.792;2023-04-16T05:57:36;99165.38;;;9.03;100.00
26807;BME280;14380;49.910;6.792;2023-04-16T06:00:04;99167.59;;;9.12;100.00
26807;BME280;14380;49.910;6.792;2023-04-16T06:02:30;99167.72;;;9.30;100.00
26807;BME280;14380;49.910;6.792;2023-04-16T06:05:00;99163.88;;;9.58;100.00
26807;BME280;14380;49.910;6.792;2023-04-16T06:07:26;99168.03;;;9.63;100.00
26807;BME280;14380;49.910;6.792;2023-04-16T06:09:53;99178.25;;;9.50;100.00
26807;BME280;14380;49.910;6.792;2023-04-16T06:12:20;99178.53;;;9.44;100.00
26807;BME280;14380;49.910;6.792;2023-04-16T06:14:47;99174.91;;;9.47;100.00
26807;BME280;14380;49.910;6.792;2023-04-16T06:17:13;99169.47;;;9.71;100.00
26807;BME280;14380;49.910;6.792;2023-04-16T06:19:40;99166.34;;;9.81;100.00
26807;BME280;14380;49.910;6.792;2023-04-16T06:22:07;99168.25;;;9.78;100.00
26807;BME280;14380;49.910;6.792;2023-04-16T06:24:33;99181.34;;;9.40;100.00
26807;BME280;14380;49.910;6.792;2023-04-16T06:27:00;99190.50;;;9.51;100.00
26807;BME280;14380;49.910;6.792;2023-04-16T06:29:28;99194.22;;;9.47;100.00
26807;BME280;14380;49.910;6.792;2023-04-16T06:31:54;99194.13;;;9.70;100.00
26807;BME280;14380;49.910;6.792;2023-04-16T06:34:21;99192.63;;;9.83;100.00
26807;BME280;14380;49.910;6.792;2023-04-16T06:36:48;99198.91;;;9.80;100.00
26807;BME280;14380;49.910;6.792;2023-04-16T06:39:14;99188.22;;;9.84;100.00
26807;BME280;14380;49.910;6.792;2023-04-16T06:41:41;99203.31;;;9.80;100.00
26807;BME280;14380;49.910;6.792;2023-04-16T06:44:07;99198.03;;;9.80;100.00
26807;BME280;14380;49.910;6.792;2023-04-16T06:46:35;99201.63;;;9.98;100.00
26807;BME280;14380;49.910;6.792;2023-04-16T06:49:02;99206.53;;;9.87;100.00
26807;BME280;14380;49.910;6.792;2023-04-16T06:51:28;99206.69;;;9.84;100.00
26807;BME280;14380;49.910;6.792;2023-04-16T06:53:55;99209.72;;;9.74;100.00
26807;BME280;14380;49.910;6.792;2023-04-16T06:56:21;99213.63;;;9.65;100.00
26807;BME280;14380;49.910;6.792;2023-04-16T06:58:48;99219.47;;;9.93;100.00
26807;BME280;14380;49.910;6.792;2023-04-16T07:01:15;99219.50;;;9.91;100.00
26807;BME280;14380;49.910;6.792;2023-04-16T07:03:43;99225.03;;;10.06;100.00
26807;BME280;14380;49.910;6.792;2023-04-16T07:06:10;99218.03;;;10.05;100.00
26807;BME280;14380;49.910;6.792;2023-04-16T07:08:36;99220.03;;;10.00;100.00
26807;BME280;14380;49.910;6.792;2023-04-16T07:11:03;99229.75;;;9.78;100.00
26807;BME280;14380;49.910;6.792;2023-04-16T07:13:30;99232.59;;;9.74;100.00
26807;BME280;14380;49.910;6.792;2023-04-16T07:15:56;99237.06;;;9.72;100.00
26807;BME280;14380;49.910;6.792;2023-04-16T07:18:23;99233.34;;;9.96;100.00
26807;BME280;14380;49.910;6.792;2023-04-16T07:20:51;99241.81;;;9.84;100.00
26807;BME280;14380;49.910;6.792;2023-04-16T07:23:17;99228.78;;;10.00;100.00
26807;BME280;14380;49.910;6.792;2023-04-16T07:25:44;99236.38;;;10.08;100.00
26807;BME280;14380;49.910;6.792;2023-04-16T07:28:10;99231.16;;;10.06;100.00
26807;BME280;14380;49.910;6.792;2023-04-16T07:30:37;99231.16;;;10.06;100.00
26807;BME280;14380;49.910;6.792;2023-04-16T07:33:03;99236.81;;;9.78;100.00
26807;BME280;14380;49.910;6.792;2023-04-16T07:35:30;99238.41;;;10.01;100.00
26807;BME280;14380;49.910;6.792;2023-04-16T07:37:58;99238.66;;;10.35;100.00
26807;BME280;14380;49.910;6.792;2023-04-16T07:40:25;99237.63;;;10.39;100.00
26807;BME280;14380;49.910;6.792;2023-04-16T07:42:51;99237.34;;;10.45;100.00
26807;BME280;14380;49.910;6.792;2023-04-16T07:45:18;99241.44;;;10.32;100.00
26807;BME280;14380;49.910;6.792;2023-04-16T07:47:44;99231.03;;;10.48;100.00
26807;BME280;14380;49.910;6.792;2023-04-16T07:50:11;99233.78;;;10.25;100.00
26807;BME280;14380;49.910;6.792;2023-04-16T07:52:38;99216.53;;;10.76;100.00
26807;BME280;14380;49.910;6.792;2023-04-16T07:55:08;99225.63;;;10.88;100.00
26807;BME280;14380;49.910;6.792;2023-04-16T07:57:35;99220.63;;;10.45;100.00
26807;BME280;14380;49.910;6.792;2023-04-16T08:00:02;99236.53;;;10.62;100.00
26807;BME280;14380;49.910;6.792;2023-04-16T08:02:29;99227.03;;;10.58;100.00
26807;BME280;14380;49.910;6.792;2023-04-16T08:04:56;99227.97;;;10.57;100.00
26807;BME280;14380;49.910;6.792;2023-04-16T08:07:22;99243.69;;;10.97;100.00
26807;BME280;14380;49.910;6.792;2023-04-16T08:09:50;99242.91;;;10.95;100.00
26807;BME280;14380;49.910;6.792;2023-04-16T08:12:19;99237.31;;;11.19;100.00
26807;BME280;14380;49.910;6.792;2023-04-16T08:14:46;99236.91;;;11.26;99.80
26807;BME280;14380;49.910;6.792;2023-04-16T08:17:13;99235.63;;;11.35;100.00
26807;BME280;14380;49.910;6.792;2023-04-16T08:19:41;99237.41;;;11.52;100.00
26807;BME280;14380;49.910;6.792;2023-04-16T08:22:08;99250.69;;;11.33;99.65
26807;BME280;14380;49.910;6.792;2023-04-16T08:24:34;99244.03;;;10.89;98.80
26807;BME280;14380;49.910;6.792;2023-04-16T08:27:01;99250.25;;;10.88;100.00
26807;BME280;14380;49.910;6.792;2023-04-16T08:29:28;99256.81;;;10.98;100.00
26807;BME280;14380;49.910;6.792;2023-04-16T08:31:55;99253.63;;;11.09;100.00
26807;BME280;14380;49.910;6.792;2023-04-16T08:34:22;99250.13;;;11.26;100.00
26807;BME280;14380;49.910;6.792;2023-04-16T08:36:48;99255.28;;;11.29;99.34
26807;BME280;14380;49.910;6.792;2023-04-16T08:39:14;99258.16;;;11.25;99.66
26807;BME280;14380;49.910;6.792;2023-04-16T08:41:42;99254.81;;;11.56;100.00
26807;BME280;14380;49.910;6.792;2023-04-16T08:44:14;99256.84;;;11.51;97.75
26807;BME280;14380;49.910;6.792;2023-04-16T08:46:46;99250.16;;;11.62;96.89
26807;BME280;14380;49.910;6.792;2023-04-16T08:49:15;99255.91;;;12.03;97.05
26807;BME280;14380;49.910;6.792;2023-04-16T08:51:44;99257.41;;;12.09;95.13
26807;BME280;14380;49.910;6.792;2023-04-16T08:54:18;99260.41;;;12.19;96.72
26807;BME280;14380;49.910;6.792;2023-04-16T08:56:47;99265.50;;;12.06;96.12
26807;BME280;14380;49.910;6.792;2023-04-16T08:59:14;99260.53;;;12.33;95.77
26807;BME280;14380;49.910;6.792;2023-04-16T09:01:41;99262.88;;;12.06;95.36
26807;BME280;14380;49.910;6.792;2023-04-16T09:04:09;99263.63;;;12.58;96.74
26807;BME280;14380;49.910;6.792;2023-04-16T09:06:36;99265.81;;;12.66;95.17
26807;BME280;14380;49.910;6.792;2023-04-16T09:09:03;99267.69;;;12.31;92.45
26807;BME280;14380;49.910;6.792;2023-04-16T09:11:31;99271.78;;;12.53;94.13
26807;BME280;14380;49.910;6.792;2023-04-16T09:13:58;99269.66;;;12.44;95.03
26807;BME280;14380;49.910;6.792;2023-04-16T09:16:26;99266.06;;;12.45;94.56
26807;BME280;14380;49.910;6.792;2023-04-16T09:18:55;99277.22;;;12.18;93.27
26807;BME280;14380;49.910;6.792;2023-04-16T09:21:23;99277.72;;;12.09;93.74
26807;BME280;14380;49.910;6.792;2023-04-16T09:23:52;99283.19;;;12.22;97.67
26807;BME280;14380;49.910;6.792;2023-04-16T09:26:18;99282.31;;;12.05;95.75
26807;BME280;14380;49.910;6.792;2023-04-16T09:28:47;99281.31;;;12.24;93.74
26807;BME280;14380;49.910;6.792;2023-04-16T09:31:16;99290.91;;;12.26;93.92
26807;BME280;14380;49.910;6.792;2023-04-16T09:33:59;99288.50;;;12.38;94.85
26807;BME280;14380;49.910;6.792;2023-04-16T09:36:27;99290.44;;;12.52;94.81
26807;BME280;14380;49.910;6.792;2023-04-16T09:38:54;99289.84;;;11.95;94.12
26807;BME280;14380;49.910;6.792;2023-04-16T09:41:24;99286.75;;;12.86;91.66
26807;BME280;14380;49.910;6.792;2023-04-16T09:43:55;99278.09;;;12.99;90.32
26807;BME280;14380;49.910;6.792;2023-04-16T09:46:23;99284.00;;;13.04;92.45
26807;BME280;14380;49.910;6.792;2023-04-16T09:48:50;99283.03;;;13.21;91.01
26807;BME280;14380;49.910;6.792;2023-04-16T09:51:16;99289.72;;;13.12;91.10
26807;BME280;14380;49.910;6.792;2023-04-16T09:53:44;99283.03;;;13.21;91.17
26807;BME280;14380;49.910;6.792;2023-04-16T09:56:11;99284.50;;;13.11;88.52
26807;BME280;14380;49.910;6.792;2023-04-16T09:58:38;99292.56;;;12.93;89.04
26807;BME280;14380;49.910;6.792;2023-04-16T10:01:07;99282.19;;;13.04;92.57
26807;BME280;14380;49.910;6.792;2023-04-16T10:03:36;99295.31;;;12.59;88.50
26807;BME280;14380;49.910;6.792;2023-04-16T10:06:07;99298.22;;;12.87;88.05
26807;BME280;14380;49.910;6.792;2023-04-16T10:08:35;99286.66;;;13.50;88.65
26807;BME280;14380;49.910;6.792;2023-04-16T10:11:02;99287.69;;;13.48;89.39
26807;BME280;14380;49.910;6.792;2023-04-16T10:13:30;99287.59;;;13.94;87.48
26807;BME280;14380;49.910;6.792;2023-04-16T10:15:57;99299.06;;;13.50;86.47
26807;BME280;14380;49.910;6.792;2023-04-16T10:18:24;99297.47;;;13.47;87.29
26807;BME280;14380;49.910;6.792;2023-04-16T10:20:50;99298.22;;;13.49;86.84
26807;BME280;14380;49.910;6.792;2023-04-16T10:23:19;99293.44;;;13.71;86.88
26807;BME280;14380;49.910;6.792;2023-04-16T10:25:47;99305.53;;;14.05;86.71
26807;BME280;14380;49.910;6.792;2023-04-16T10:28:15;99302.13;;;14.03;85.48
26807;BME280;14380;49.910;6.792;2023-04-16T10:30:43;99284.78;;;14.12;86.57
26807;BME280;14380;49.910;6.792;2023-04-16T10:33:18;99290.75;;;14.30;85.68
26807;BME280;14380;49.910;6.792;2023-04-16T10:35:45;99291.91;;;14.11;85.17
26807;BME280;14380;49.910;6.792;2023-04-16T10:38:30;99295.97;;;14.32;84.44
26807;BME280;14380;49.910;6.792;2023-04-16T10:41:02;99290.44;;;14.64;85.56
26807;BME280;14380;49.910;6.792;2023-04-16T10:43:31;99293.44;;;14.86;83.67
26807;BME280;14380;49.910;6.792;2023-04-16T10:46:16;99282.94;;;14.70;82.23
26807;BME280;14380;49.910;6.792;2023-04-16T10:48:43;99284.56;;;14.73;82.47
26807;BME280;14380;49.910;6.792;2023-04-16T10:51:22;99279.25;;;15.94;82.11
26807;BME280;14380;49.910;6.792;2023-04-16T10:53:50;99288.97;;;14.87;77.08
26807;BME280;14380;49.910;6.792;2023-04-16T10:56:22;99271.53;;;15.64;82.92
26807;BME280;14380;49.910;6.792;2023-04-16T10:58:51;99285.56;;;15.40;76.93
26807;BME280;14380;49.910;6.792;2023-04-16T11:01:28;99273.53;;;15.07;78.95
26807;BME280;14380;49.910;6.792;2023-04-16T11:03:57;99272.66;;;15.34;79.21
26807;BME280;14380;49.910;6.792;2023-04-16T11:06:25;99287.00;;;15.31;79.47
26807;BME280;14380;49.910;6.792;2023-04-16T11:08:52;99286.72;;;14.66;80.39
26807;BME280;14380;49.910;6.792;2023-04-16T11:11:19;99287.16;;;15.42;77.78
26807;BME280;14380;49.910;6.792;2023-04-16T11:13:46;99302.41;;;14.42;78.71
26807;BME280;14380;49.910;6.792;2023-04-16T11:16:15;99291.59;;;14.45;79.38
26807;BME280;14380;49.910;6.792;2023-04-16T11:18:44;99286.63;;;14.53;81.43
26807;BME280;14380;49.910;6.792;2023-04-16T11:21:11;99285.72;;;14.25;81.47
26807;BME280;14380;49.910;6.792;2023-04-16T11:23:45;99291.44;;;14.90;81.07
26807;BME280;14380;49.910;6.792;2023-04-16T11:26:19;99280.19;;;14.72;80.66
26807;BME280;14380;49.910;6.792;2023-04-16T11:28:46;99288.34;;;14.54;83.31
26807;BME280;14380;49.910;6.792;2023-04-16T11:31:14;99294.66;;;14.24;83.53
26807;BME280;14380;49.910;6.792;2023-04-16T11:33:41;99291.25;;;14.64;82.51
26807;BME280;14380;49.910;6.792;2023-04-16T11:36:08;99301.19;;;14.04;82.31
26807;BME280;14380;49.910;6.792;2023-04-16T11:38:35;99295.09;;;13.88;82.48
26807;BME280;14380;49.910;6.792;2023-04-16T11:41:02;99304.91;;;13.71;85.60
26807;BME280;14380;49.910;6.792;2023-04-16T11:43:28;99305.22;;;13.81;83.28
26807;BME280;14380;49.910;6.792;2023-04-16T11:45:56;99302.59;;;14.53;83.92
26807;BME280;14380;49.910;6.792;2023-04-16T11:48:24;99302.13;;;14.03;81.26
26807;BME280;14380;49.910;6.792;2023-04-16T11:50:56;99307.81;;;14.26;85.83
26807;BME280;14380;49.910;6.792;2023-04-16T11:53:23;99306.28;;;14.22;83.33
26807;BME280;14380;49.910;6.792;2023-04-16T11:55:50;99318.06;;;14.03;81.09
26807;BME280;14380;49.910;6.792;2023-04-16T11:58:17;99307.25;;;14.06;82.93
26807;BME280;14380;49.910;6.792;2023-04-16T12:00:45;99320.34;;;14.09;87.10
26807;BME280;14380;49.910;6.792;2023-04-16T12:03:11;99313.31;;;13.94;82.28
26807;BME280;14380;49.910;6.792;2023-04-16T12:05:39;99331.09;;;13.15;85.68
26807;BME280;14380;49.910;6.792;2023-04-16T12:08:07;99326.72;;;13.76;84.41
26807;BME280;14380;49.910;6.792;2023-04-16T12:10:35;99321.16;;;13.95;86.82
26807;BME280;14380;49.910;6.792;2023-04-16T12:13:09;99322.41;;;14.04;84.42
26807;BME280;14380;49.910;6.792;2023-04-16T12:15:43;99329.44;;;13.60;86.34
26807;BME280;14380;49.910;6.792;2023-04-16T12:18:10;99328.66;;;13.89;85.96
26807;BME280;14380;49.910;6.792;2023-04-16T12:20:39;99324.16;;;13.75;87.35
26807;BME280;14380;49.910;6.792;2023-04-16T12:23:06;99330.06;;;13.94;85.83
26807;BME280;14380;49.910;6.792;2023-04-16T12:25:33;99336.06;;;13.98;88.31
26807;BME280;14380;49.910;6.792;2023-04-16T12:28:00;99335.13;;;13.99;87.53
26807;BME280;14380;49.910;6.792;2023-04-16T12:30:27;99332.38;;;13.70;86.12
26807;BME280;14380;49.910;6.792;2023-04-16T12:33:13;99330.03;;;14.10;86.63
26807;BME280;14380;49.910;6.792;2023-04-16T12:35:41;99335.59;;;14.06;83.89
26807;BME280;14380;49.910;6.792;2023-04-16T12:38:10;99323.84;;;14.53;82.38
26807;BME280;14380;49.910;6.792;2023-04-16T12:40:38;99331.81;;;14.24;85.44
26807;BME280;14380;49.910;6.792;2023-04-16T12:43:04;99333.13;;;13.88;86.78
26807;BME280;14380;49.910;6.792;2023-04-16T12:45:31;99331.59;;;13.84;85.78
26807;BME280;14380;49.910;6.792;2023-04-16T12:47:58;99331.31;;;13.58;88.13
26807;BME280;14380;49.910;6.792;2023-04-16T12:50:24;99340.72;;;13.01;89.53
26807;BME280;14380;49.910;6.792;2023-04-16T12:52:54;99337.66;;;13.56;91.08
26807;BME280;14380;49.910;6.792;2023-04-16T12:55:20;99340.75;;;13.32;90.70
26807;BME280;14380;49.910;6.792;2023-04-16T12:57:48;99339.38;;;13.41;90.11
26807;BME280;14380;49.910;6.792;2023-04-16T13:00:17;99339.91;;;13.31;90.70
26807;BME280;14380;49.910;6.792;2023-04-16T13:02:44;99339.34;;;13.10;92.10